createdAt,value
2023-05-08T00:00:27.184Z,25.00
2023-05-08T00:01:27.215Z,25.00
2023-05-08T00:02:27.297Z,25.00
2023-05-08T00:03:27.423Z,0.00
2023-05-08T00:04:27.393Z,0.00
2023-05-08T00:05:27.351Z,0.00
2023-05-08T00:06:27.392Z,0.00
2023-05-08T00:07:27.432Z,0.00
2023-05-08T00:08:27.463Z,0.00
2023-05-08T00:09:27.509Z,0.00
2023-05-08T00:10:27.551Z,7.58
2023-05-08T00:11:27.588Z,24.50
2023-05-08T00:12:27.635Z,25.00
2023-05-08T00:13:27.758Z,25.32
2023-05-08T00:14:27.727Z,25.00
2023-05-08T00:15:27.804Z,25.38
2023-05-08T00:16:27.876Z,24.55
2023-05-08T00:17:27.913Z,25.67
2023-05-08T00:18:27.911Z,23.98
2023-05-08T00:19:27.955Z,26.03
2023-05-08T00:20:28.014Z,25.49
2023-05-08T00:21:28.062Z,25.63
2023-05-08T00:22:28.097Z,25.00
2023-05-08T00:23:28.144Z,26.24
2023-05-08T00:24:28.201Z,25.48
2023-05-08T00:25:28.262Z,27.34
2023-05-08T00:26:28.294Z,25.10
2023-05-08T00:27:28.343Z,25.34
2023-05-08T00:28:28.386Z,27.06
2023-05-08T00:29:28.450Z,25.00
2023-05-08T00:30:28.524Z,26.54
2023-05-08T00:31:28.561Z,27.08
2023-05-08T00:32:28.646Z,26.85
2023-05-08T00:33:28.641Z,25.00
2023-05-08T00:34:28.693Z,25.69
2023-05-08T00:35:28.778Z,27.20
2023-05-08T00:36:28.805Z,28.25
2023-05-08T00:37:28.869Z,25.26
2023-05-08T00:38:28.932Z,27.07
2023-05-08T00:39:28.967Z,25.00
2023-05-08T00:40:29.022Z,27.09
2023-05-08T00:41:29.085Z,27.65
2023-05-08T00:42:29.138Z,26.97
2023-05-08T00:43:29.210Z,27.56
2023-05-08T00:44:29.258Z,25.58
2023-05-08T00:45:29.342Z,29.33
2023-05-08T00:46:29.395Z,26.17
2023-05-08T00:47:29.474Z,26.83
2023-05-08T00:48:29.457Z,26.49
2023-05-08T00:49:29.506Z,26.30
2023-05-08T00:50:29.568Z,24.32
2023-05-08T00:51:29.619Z,27.29
2023-05-08T00:52:29.700Z,25.00
2023-05-08T00:53:29.711Z,25.00
2023-05-08T00:54:29.769Z,30.53
2023-05-08T00:55:29.833Z,28.10
2023-05-08T00:56:29.889Z,25.07
2023-05-08T00:57:29.951Z,28.68
2023-05-08T00:58:30.074Z,26.76
2023-05-08T00:59:30.076Z,27.40
2023-05-08T01:00:30.132Z,28.76
2023-05-08T01:01:30.265Z,28.25
2023-05-08T01:02:30.328Z,25.66
2023-05-08T01:03:30.344Z,25.00
2023-05-08T01:04:30.365Z,28.92
2023-05-08T01:05:30.383Z,28.10
2023-05-08T01:06:30.437Z,27.27
2023-05-08T01:07:30.495Z,27.15
2023-05-08T01:08:30.555Z,26.24
2023-05-08T01:09:30.613Z,30.70
2023-05-08T01:10:30.724Z,29.30
2023-05-08T01:11:30.728Z,27.85
2023-05-08T01:12:30.779Z,29.53
2023-05-08T01:13:30.836Z,30.62
2023-05-08T01:14:30.879Z,28.09
2023-05-08T01:15:30.938Z,28.99
2023-05-08T01:16:31.065Z,28.44
2023-05-08T01:17:31.157Z,27.31
2023-05-08T01:18:31.072Z,29.26
2023-05-08T01:19:31.132Z,28.97
2023-05-08T01:20:31.181Z,27.38
2023-05-08T01:21:31.220Z,30.56
2023-05-08T01:22:31.279Z,27.91
2023-05-08T01:23:31.279Z,27.89
2023-05-08T01:24:31.322Z,28.88
2023-05-08T01:25:31.364Z,26.18
2023-05-08T01:26:31.387Z,27.04
2023-05-08T01:27:31.421Z,28.64
2023-05-08T01:28:31.479Z,26.64
2023-05-08T01:29:31.447Z,27.17
2023-05-08T01:30:31.481Z,30.29
2023-05-08T01:31:31.770Z,31.09
2023-05-08T01:32:31.582Z,28.44
2023-05-08T01:33:31.559Z,31.04
2023-05-08T01:34:31.527Z,30.35
2023-05-08T01:35:31.595Z,26.30
2023-05-08T01:36:31.621Z,28.16
2023-05-08T01:37:31.671Z,31.31
2023-05-08T01:38:31.740Z,29.04
2023-05-08T01:39:31.762Z,30.80
2023-05-08T01:40:31.797Z,29.64
2023-05-08T01:41:31.817Z,29.99
2023-05-08T01:42:31.850Z,29.26
2023-05-08T01:43:31.890Z,29.02
2023-05-08T01:44:31.994Z,27.57
2023-05-08T01:45:32.061Z,28.55
2023-05-08T01:46:32.045Z,28.37
2023-05-08T01:47:32.147Z,27.44
2023-05-08T01:48:32.143Z,30.15
2023-05-08T01:49:32.180Z,29.21
2023-05-08T01:50:32.177Z,27.08
2023-05-08T01:51:32.227Z,29.16
2023-05-08T01:52:32.211Z,30.45
2023-05-08T01:53:32.233Z,26.47
2023-05-08T01:54:32.240Z,26.76
2023-05-08T01:55:32.289Z,29.22
2023-05-08T01:56:32.297Z,27.59
2023-05-08T01:57:32.311Z,28.48
2023-05-08T01:58:32.313Z,28.55
2023-05-08T01:59:32.317Z,30.58
2023-05-08T02:00:32.313Z,28.01
2023-05-08T02:01:32.318Z,28.30
2023-05-08T02:02:32.347Z,30.02
2023-05-08T02:03:32.379Z,28.12
2023-05-08T02:04:32.270Z,30.30
2023-05-08T02:05:32.283Z,26.03
2023-05-08T02:06:32.245Z,30.49
2023-05-08T02:07:32.240Z,30.69
2023-05-08T02:08:32.244Z,29.01
2023-05-08T02:09:32.268Z,28.92
2023-05-08T02:10:32.251Z,29.47
2023-05-08T02:11:32.279Z,27.90
2023-05-08T02:12:32.275Z,28.83
2023-05-08T02:13:32.274Z,28.81
2023-05-08T02:14:33.126Z,29.62
2023-05-08T02:15:32.268Z,27.38
2023-05-08T02:16:32.307Z,28.27
2023-05-08T02:17:32.287Z,28.50
2023-05-08T02:18:32.316Z,30.54
2023-05-08T02:19:32.343Z,31.32
2023-05-08T02:20:32.348Z,29.48
2023-05-08T02:21:32.415Z,30.04
2023-05-08T02:22:32.444Z,29.22
2023-05-08T02:23:32.441Z,25.27
2023-05-08T02:24:32.445Z,31.42
2023-05-08T02:25:32.457Z,29.60
2023-05-08T02:26:32.480Z,29.04
2023-05-08T02:27:32.503Z,28.52
2023-05-08T02:28:32.512Z,29.34
2023-05-08T02:29:32.518Z,25.02
2023-05-08T02:30:32.563Z,29.93
2023-05-08T02:31:32.614Z,32.68
2023-05-08T02:32:32.595Z,29.79
2023-05-08T02:33:32.597Z,30.20
2023-05-08T02:34:32.605Z,31.72
2023-05-08T02:35:32.637Z,28.93
2023-05-08T02:36:32.669Z,27.73
2023-05-08T02:37:32.719Z,28.40
2023-05-08T02:38:32.745Z,29.61
2023-05-08T02:39:32.787Z,29.46
2023-05-08T02:40:32.829Z,30.27
2023-05-08T02:41:32.875Z,29.45
2023-05-08T02:42:32.930Z,29.94
2023-05-08T02:43:32.971Z,28.33
2023-05-08T02:44:33.021Z,27.96
2023-05-08T02:45:33.081Z,29.32
2023-05-08T02:46:33.204Z,28.44
2023-05-08T02:47:33.218Z,28.74
2023-05-08T02:48:33.285Z,27.58
2023-05-08T02:49:33.371Z,29.65
2023-05-08T02:50:33.360Z,29.14
2023-05-08T02:51:33.391Z,28.77
2023-05-08T02:52:33.420Z,27.73
2023-05-08T02:53:33.472Z,28.41
2023-05-08T02:54:33.504Z,27.92
2023-05-08T02:55:33.553Z,29.63
2023-05-08T02:56:33.582Z,30.77
2023-05-08T02:57:33.623Z,30.15
2023-05-08T02:58:33.646Z,28.51
2023-05-08T02:59:33.673Z,28.93
2023-05-08T03:00:33.704Z,30.26
2023-05-08T03:01:33.748Z,27.37
2023-05-08T03:02:33.817Z,27.57
2023-05-08T03:03:33.997Z,27.02
2023-05-08T03:04:33.784Z,25.83
2023-05-08T03:05:33.813Z,26.75
2023-05-08T03:06:33.836Z,27.02
2023-05-08T03:07:33.899Z,30.73
2023-05-08T03:08:33.924Z,29.16
2023-05-08T03:09:33.953Z,28.88
2023-05-08T03:10:33.944Z,28.60
2023-05-08T03:11:33.957Z,27.24
2023-05-08T03:12:33.957Z,27.11
2023-05-08T03:13:33.949Z,25.08
2023-05-08T03:14:33.940Z,26.37
2023-05-08T03:15:34.004Z,27.71
2023-05-08T03:16:33.981Z,28.42
2023-05-08T03:17:34.039Z,27.65
2023-05-08T03:18:34.045Z,29.18
2023-05-08T03:19:34.085Z,27.30
2023-05-08T03:20:34.110Z,27.94
2023-05-08T03:21:34.109Z,28.34
2023-05-08T03:22:34.097Z,26.00
2023-05-08T03:23:34.090Z,25.45
2023-05-08T03:24:34.073Z,29.63
2023-05-08T03:25:34.102Z,29.18
2023-05-08T03:26:34.065Z,27.84
2023-05-08T03:27:34.060Z,27.75
2023-05-08T03:28:34.055Z,29.74
2023-05-08T03:29:34.040Z,30.93
2023-05-08T03:30:34.030Z,29.72
2023-05-08T03:31:34.107Z,28.88
2023-05-08T03:32:34.075Z,30.48
2023-05-08T03:33:34.032Z,29.65
2023-05-08T03:34:34.050Z,28.44
2023-05-08T03:35:34.031Z,29.92
2023-05-08T03:36:34.006Z,30.94
2023-05-08T03:37:33.997Z,29.69
2023-05-08T03:38:33.996Z,29.20
2023-05-08T03:39:33.980Z,29.47
2023-05-08T03:40:33.982Z,32.29
2023-05-08T03:41:34.018Z,30.30
2023-05-08T03:42:34.000Z,29.42
2023-05-08T03:43:33.989Z,32.11
2023-05-08T03:44:34.797Z,28.42
2023-05-08T03:45:33.960Z,29.10
2023-05-08T03:46:33.989Z,30.08
2023-05-08T03:47:33.966Z,30.62
2023-05-08T03:48:33.943Z,31.86
2023-05-08T03:49:33.930Z,30.25
2023-05-08T03:50:33.936Z,30.33
2023-05-08T03:51:33.929Z,30.50
2023-05-08T03:52:33.924Z,29.84
2023-05-08T03:53:33.917Z,29.28
2023-05-08T03:54:33.911Z,30.88
2023-05-08T03:55:33.902Z,30.90
2023-05-08T03:56:33.898Z,30.32
2023-05-08T03:57:33.992Z,30.43
2023-05-08T03:58:33.875Z,29.62
2023-05-08T03:59:33.896Z,27.17
2023-05-08T04:00:33.874Z,28.38
2023-05-08T04:01:33.898Z,30.53
2023-05-08T04:02:33.994Z,30.80
2023-05-08T04:03:33.924Z,29.54
2023-05-08T04:04:33.909Z,28.66
2023-05-08T04:05:34.002Z,29.64
2023-05-08T04:06:45.849Z,28.22
2023-05-08T04:07:33.897Z,28.65
2023-05-08T04:08:33.879Z,29.80
2023-05-08T04:09:33.872Z,30.27
2023-05-08T04:10:33.863Z,31.07
2023-05-08T04:11:33.850Z,31.83
2023-05-08T04:12:33.834Z,32.44
2023-05-08T04:13:33.840Z,31.89
2023-05-08T04:14:33.805Z,28.42
2023-05-08T04:15:33.787Z,30.26
2023-05-08T04:16:33.810Z,31.48
2023-05-08T04:17:33.787Z,30.17
2023-05-08T04:18:33.733Z,28.52
2023-05-08T04:19:33.728Z,31.96
2023-05-08T04:20:33.714Z,30.18
2023-05-08T04:21:33.702Z,30.13
2023-05-08T04:22:33.716Z,28.04
2023-05-08T04:23:33.651Z,28.83
2023-05-08T04:24:33.641Z,30.48
2023-05-08T04:25:33.632Z,29.48
2023-05-08T04:26:33.613Z,32.05
2023-05-08T04:27:33.593Z,30.26
2023-05-08T04:28:33.590Z,28.27
2023-05-08T04:29:33.605Z,30.67
2023-05-08T04:30:33.623Z,30.14
2023-05-08T04:31:33.555Z,26.27
2023-05-08T04:32:33.548Z,28.31
2023-05-08T04:33:33.503Z,29.41
2023-05-08T04:34:33.493Z,28.15
2023-05-08T04:35:33.488Z,28.84
2023-05-08T04:36:33.458Z,29.18
2023-05-08T04:37:33.441Z,32.07
2023-05-08T04:38:33.431Z,27.89
2023-05-08T04:39:33.434Z,30.88
2023-05-08T04:40:33.411Z,30.42
2023-05-08T04:41:33.448Z,28.16
2023-05-08T04:42:33.371Z,31.98
2023-05-08T04:43:33.348Z,31.47
2023-05-08T04:44:33.342Z,28.82
2023-05-08T04:45:33.380Z,29.13
2023-05-08T04:46:33.319Z,30.22
2023-05-08T04:47:33.335Z,30.38
2023-05-08T04:48:33.281Z,30.74
2023-05-08T04:49:33.254Z,30.12
2023-05-08T04:50:33.233Z,30.61
2023-05-08T04:51:33.226Z,30.73
2023-05-08T04:52:33.287Z,30.30
2023-05-08T04:53:33.180Z,29.62
2023-05-08T04:54:33.175Z,28.98
2023-05-08T04:55:33.152Z,27.97
2023-05-08T04:56:33.129Z,29.02
2023-05-08T04:57:33.148Z,33.12
2023-05-08T04:58:33.116Z,29.08
2023-05-08T04:59:33.067Z,28.11
2023-05-08T05:00:33.081Z,30.95
2023-05-08T05:01:33.092Z,28.24
2023-05-08T05:02:33.068Z,32.02
2023-05-08T05:03:33.020Z,30.65
2023-05-08T05:04:32.981Z,33.20
2023-05-08T05:05:32.967Z,30.87
2023-05-08T05:06:32.953Z,28.92
2023-05-08T05:07:32.960Z,29.65
2023-05-08T05:08:32.944Z,30.61
2023-05-08T05:09:32.906Z,32.09
2023-05-08T05:10:32.889Z,30.54
2023-05-08T05:11:32.877Z,30.10
2023-05-08T05:12:32.868Z,29.68
2023-05-08T05:13:32.853Z,29.52
2023-05-08T05:14:32.844Z,28.69
2023-05-08T05:15:32.807Z,27.68
2023-05-08T05:16:32.824Z,29.03
2023-05-08T05:17:32.833Z,30.14
2023-05-08T05:18:32.770Z,30.92
2023-05-08T05:19:32.761Z,30.07
2023-05-08T05:20:32.862Z,30.70
2023-05-08T05:21:32.701Z,30.69
2023-05-08T05:22:32.854Z,31.43
2023-05-08T05:23:32.660Z,32.41
2023-05-08T05:24:32.863Z,29.86
2023-05-08T05:25:32.631Z,29.41
2023-05-08T05:26:33.476Z,29.31
2023-05-08T05:27:32.607Z,37.40
2023-05-08T05:28:32.594Z,33.66
2023-05-08T05:29:32.565Z,30.51
2023-05-08T05:30:32.560Z,33.43
2023-05-08T05:31:32.585Z,31.80
2023-05-08T05:32:32.902Z,36.58
2023-05-08T05:33:32.542Z,37.60
2023-05-08T05:34:32.483Z,39.18
2023-05-08T05:35:32.470Z,39.56
2023-05-08T05:36:32.440Z,41.34
2023-05-08T05:37:32.423Z,39.18
2023-05-08T05:38:32.412Z,42.33
2023-05-08T05:39:32.383Z,45.88
2023-05-08T05:40:32.864Z,45.48
2023-05-08T05:41:32.355Z,46.64
2023-05-08T05:42:32.389Z,43.74
2023-05-08T05:43:32.315Z,46.70
2023-05-08T05:44:32.370Z,45.67
2023-05-08T05:45:33.601Z,46.66
2023-05-08T05:46:32.521Z,48.21
2023-05-08T05:47:32.350Z,51.40
2023-05-08T05:48:33.334Z,53.94
2023-05-08T05:49:32.332Z,50.91
2023-05-08T05:51:32.278Z,51.79
2023-05-08T05:52:32.266Z,53.17
2023-05-08T05:53:35.430Z,53.68
2023-05-08T05:54:32.228Z,52.05
2023-05-08T05:55:39.756Z,56.41
2023-05-08T05:56:32.185Z,52.83
2023-05-08T05:57:32.358Z,57.90
2023-05-08T05:58:39.573Z,66.15
2023-05-08T05:59:32.124Z,53.17
2023-05-08T06:00:32.124Z,59.45
2023-05-08T06:01:32.219Z,69.96
2023-05-08T06:02:32.492Z,83.92
2023-05-08T06:03:32.108Z,99.31
2023-05-08T06:04:39.464Z,97.41
2023-05-08T06:05:35.201Z,97.89
2023-05-08T06:06:35.183Z,98.06
2023-05-08T06:07:32.378Z,98.06
2023-05-08T06:08:35.129Z,98.70
2023-05-08T06:09:32.076Z,97.88
2023-05-08T06:10:31.885Z,98.59
2023-05-08T06:11:31.859Z,98.12
2023-05-08T06:12:31.857Z,99.29
2023-05-08T06:13:31.960Z,97.23
2023-05-08T06:14:32.391Z,99.58
2023-05-08T06:15:31.868Z,98.38
2023-05-08T06:16:31.791Z,97.72
2023-05-08T06:17:31.811Z,97.27
2023-05-08T06:18:31.722Z,97.58
2023-05-08T06:19:31.699Z,98.83
2023-05-08T06:20:32.033Z,94.79
2023-05-08T06:21:31.665Z,95.86
2023-05-08T06:22:31.649Z,96.42
2023-05-08T06:23:31.614Z,96.73
2023-05-08T06:24:31.878Z,94.86
2023-05-08T06:25:31.589Z,96.36
2023-05-08T06:26:31.574Z,97.13
2023-05-08T06:27:31.551Z,95.26
2023-05-08T06:28:31.538Z,96.27
2023-05-08T06:29:31.513Z,97.28
2023-05-08T06:30:31.944Z,98.39
2023-05-08T06:31:31.530Z,99.08
2023-05-08T06:32:31.485Z,98.32
2023-05-08T06:33:31.441Z,97.26
2023-05-08T06:34:31.404Z,96.64
2023-05-08T06:35:31.880Z,97.01
2023-05-08T06:36:31.417Z,95.45
2023-05-08T06:37:31.335Z,96.75
2023-05-08T06:38:31.299Z,97.71
2023-05-08T06:39:31.282Z,98.21
2023-05-08T06:40:32.323Z,95.22
2023-05-08T06:41:31.264Z,96.76
2023-05-08T06:42:31.232Z,97.13
2023-05-08T06:43:31.375Z,94.14
2023-05-08T06:44:31.205Z,97.64
2023-05-08T06:45:31.529Z,98.12
2023-05-08T06:46:31.224Z,96.48
2023-05-08T06:47:31.419Z,97.14
2023-05-08T06:48:31.137Z,92.02
2023-05-08T06:49:31.181Z,94.18
2023-05-08T06:50:31.164Z,96.87
2023-05-08T06:51:31.166Z,95.75
2023-05-08T06:52:31.420Z,94.71
2023-05-08T06:53:31.383Z,95.79
2023-05-08T06:54:31.241Z,95.67
2023-05-08T06:55:31.401Z,96.31
2023-05-08T06:56:31.255Z,94.70
2023-05-08T06:57:31.414Z,95.74
2023-05-08T06:58:31.226Z,96.89
2023-05-08T06:59:31.239Z,96.78
2023-05-08T07:00:31.222Z,95.17
2023-05-08T07:01:31.300Z,92.28
2023-05-08T07:02:31.242Z,93.84
2023-05-08T07:03:31.181Z,94.19
2023-05-08T07:04:32.359Z,92.69
2023-05-08T07:05:31.181Z,95.20
2023-05-08T07:06:31.142Z,93.68
2023-05-08T07:07:31.398Z,92.93
2023-05-08T07:08:31.503Z,94.73
2023-05-08T07:09:31.099Z,92.28
2023-05-08T07:10:31.071Z,93.73
2023-05-08T07:11:31.047Z,93.41
2023-05-08T07:12:31.060Z,93.61
2023-05-08T07:13:31.543Z,94.08
2023-05-08T07:14:32.005Z,94.22
2023-05-08T07:15:31.260Z,92.35
2023-05-08T07:16:31.020Z,91.50
2023-05-08T07:17:31.022Z,92.72
2023-05-08T07:18:31.394Z,89.86
2023-05-08T07:19:30.952Z,90.38
2023-05-08T07:20:30.945Z,90.54
2023-05-08T07:21:30.926Z,92.26
2023-05-08T07:22:30.939Z,91.21
2023-05-08T07:23:31.400Z,92.21
2023-05-08T07:24:30.942Z,88.83
2023-05-08T07:25:46.493Z,91.80
2023-05-08T07:26:30.863Z,92.19
2023-05-08T07:27:34.035Z,93.28
2023-05-08T07:28:30.900Z,92.25
2023-05-08T07:29:30.806Z,92.48
2023-05-08T07:30:32.817Z,93.11
2023-05-08T07:31:30.790Z,92.14
2023-05-08T07:32:30.788Z,92.95
2023-05-08T07:33:30.900Z,92.76
2023-05-08T07:34:30.736Z,97.19
2023-05-08T07:35:30.704Z,103.78
2023-05-08T07:36:33.919Z,103.95
2023-05-08T07:37:30.701Z,104.29
2023-05-08T07:38:46.534Z,105.56
2023-05-08T07:39:31.644Z,104.80
2023-05-08T07:40:30.722Z,104.86
2023-05-08T07:41:38.037Z,107.55
2023-05-08T07:42:30.621Z,104.86
2023-05-08T07:43:31.956Z,107.75
2023-05-08T07:44:47.200Z,113.22
2023-05-08T07:45:30.623Z,105.18
2023-05-08T07:46:30.586Z,109.50
2023-05-08T07:47:30.561Z,116.79
2023-05-08T07:48:30.982Z,129.25
2023-05-08T07:49:30.902Z,155.05
2023-05-08T07:50:30.444Z,152.52
2023-05-08T07:51:31.438Z,148.24
2023-05-08T07:52:30.413Z,156.61
2023-05-08T07:53:37.813Z,157.78
2023-05-08T07:54:30.391Z,158.29
2023-05-08T07:57:30.465Z,159.15
2023-05-08T07:58:33.429Z,162.73
2023-05-08T07:59:30.286Z,159.07
2023-05-08T08:00:30.296Z,162.62
2023-05-08T08:01:30.405Z,168.85
2023-05-08T08:02:30.358Z,180.69
2023-05-08T08:03:30.364Z,195.54
2023-05-08T08:04:30.337Z,196.51
2023-05-08T08:05:30.438Z,204.17
2023-05-08T08:06:30.140Z,207.02
2023-05-08T08:07:30.105Z,211.74
2023-05-08T08:08:30.473Z,210.13
2023-05-08T08:09:30.051Z,212.62
2023-05-08T08:10:31.025Z,215.10
2023-05-08T08:11:29.990Z,222.16
2023-05-08T08:12:29.991Z,222.88
2023-05-08T08:13:30.599Z,224.46
2023-05-08T08:14:29.894Z,225.75
2023-05-08T08:15:29.978Z,226.81
2023-05-08T08:16:29.835Z,231.45
2023-05-08T08:17:29.796Z,233.03
2023-05-08T08:18:29.762Z,236.08
2023-05-08T08:19:29.906Z,236.69
2023-05-08T08:20:29.698Z,239.35
2023-05-08T08:21:29.697Z,240.58
2023-05-08T08:22:29.656Z,244.65
2023-05-08T08:23:36.422Z,246.99
2023-05-08T08:24:29.598Z,247.62
2023-05-08T08:25:29.917Z,248.88
2023-05-08T08:26:29.553Z,252.13
2023-05-08T08:27:29.518Z,256.34
2023-05-08T08:28:29.470Z,261.69
2023-05-08T08:29:30.060Z,247.41
2023-05-08T08:30:29.437Z,250.00
2023-05-08T08:31:29.524Z,248.59
2023-05-08T08:32:29.386Z,248.03
2023-05-08T08:33:29.327Z,249.49
2023-05-08T08:34:29.293Z,248.97
2023-05-08T08:35:29.302Z,245.85
2023-05-08T08:36:29.441Z,249.66
2023-05-08T08:37:29.203Z,248.99
2023-05-08T08:38:29.216Z,250.00
2023-05-08T08:39:29.148Z,248.09
2023-05-08T08:40:36.829Z,248.27
2023-05-08T08:42:36.482Z,249.12
2023-05-08T08:43:32.226Z,249.42
2023-05-08T08:44:29.017Z,249.55
2023-05-08T08:45:32.740Z,252.12
2023-05-08T08:46:28.985Z,249.36
2023-05-08T08:47:28.928Z,252.29
2023-05-08T08:48:28.883Z,257.68
2023-05-08T08:49:28.931Z,264.61
2023-05-08T08:50:28.833Z,272.25
2023-05-08T08:51:28.929Z,252.88
2023-05-08T08:52:28.768Z,249.63
2023-05-08T08:53:28.756Z,248.48
2023-05-08T08:54:28.925Z,249.79
2023-05-08T08:55:28.931Z,250.00
2023-05-08T08:56:28.672Z,249.18
2023-05-08T08:57:28.662Z,248.66
2023-05-08T08:58:28.923Z,249.76
2023-05-08T08:59:28.593Z,249.90
2023-05-08T09:01:00.544Z,248.74
2023-05-08T09:01:28.620Z,249.03
2023-05-08T09:02:28.627Z,250.39
2023-05-08T09:03:28.646Z,250.62
2023-05-08T09:04:28.937Z,251.19
2023-05-08T09:05:28.474Z,253.93
2023-05-08T09:06:28.466Z,248.08
2023-05-08T09:07:28.450Z,249.16
2023-05-08T09:08:28.453Z,248.68
2023-05-08T09:09:28.392Z,249.30
2023-05-08T09:10:28.429Z,248.88
2023-05-08T09:11:28.365Z,249.24
2023-05-08T09:12:28.287Z,249.59
2023-05-08T09:13:28.406Z,249.83
2023-05-08T09:14:28.229Z,250.00
2023-05-08T09:15:28.434Z,248.44
2023-05-08T09:16:28.729Z,250.00
2023-05-08T09:17:28.204Z,249.24
2023-05-08T09:18:28.215Z,249.29
2023-05-08T09:19:28.935Z,249.46
2023-05-08T09:20:28.081Z,249.57
2023-05-08T09:21:28.439Z,248.93
2023-05-08T09:22:28.388Z,248.11
2023-05-08T09:23:28.200Z,250.00
2023-05-08T09:24:30.636Z,248.71
2023-05-08T09:25:28.515Z,246.73
2023-05-08T09:26:28.176Z,246.83
2023-05-08T09:27:28.309Z,241.79
2023-05-08T09:28:28.601Z,240.15
2023-05-08T09:29:28.078Z,236.59
2023-05-08T09:30:28.011Z,237.36
2023-05-08T09:31:30.183Z,238.71
2023-05-08T09:32:28.124Z,238.97
2023-05-08T09:33:28.008Z,239.40
2023-05-08T09:34:27.898Z,240.40
2023-05-08T09:35:27.859Z,241.99
2023-05-08T09:36:27.942Z,244.04
2023-05-08T09:37:27.816Z,244.03
2023-05-08T09:38:27.768Z,245.21
2023-05-08T09:39:27.753Z,248.14
2023-05-08T09:40:27.715Z,249.01
2023-05-08T09:41:27.946Z,245.69
2023-05-08T09:42:27.668Z,248.16
2023-05-08T09:43:28.015Z,249.72
2023-05-08T09:44:27.608Z,250.00
2023-05-08T09:45:27.983Z,250.00
2023-05-08T09:46:27.649Z,248.98
2023-05-08T09:47:28.537Z,247.89
2023-05-08T09:48:28.068Z,248.61
2023-05-08T09:49:27.508Z,243.87
2023-05-08T09:50:27.543Z,242.19
2023-05-08T09:51:27.568Z,241.58
2023-05-08T09:52:27.616Z,242.43
2023-05-08T09:53:27.947Z,243.53
2023-05-08T09:54:27.799Z,243.77
2023-05-08T09:55:27.669Z,243.31
2023-05-08T09:56:27.950Z,243.72
2023-05-08T09:57:27.737Z,245.13
2023-05-08T09:58:27.791Z,246.12
2023-05-08T09:59:27.847Z,249.21
2023-05-08T10:00:27.950Z,250.00
2023-05-08T10:01:27.963Z,248.85
2023-05-08T10:02:27.982Z,249.51
2023-05-08T10:03:27.989Z,249.67
2023-05-08T10:04:28.133Z,249.87
2023-05-08T10:05:28.202Z,249.23
2023-05-08T10:06:28.456Z,249.00
2023-05-08T10:07:28.118Z,250.00
2023-05-08T10:08:28.492Z,249.42
2023-05-08T10:09:35.634Z,249.67
2023-05-08T10:10:28.165Z,249.92
2023-05-08T10:11:28.137Z,250.90
2023-05-08T10:12:28.095Z,251.35
2023-05-08T10:13:28.555Z,253.31
2023-05-08T10:14:28.030Z,255.55
2023-05-08T10:15:28.002Z,249.61
2023-05-08T10:16:28.021Z,250.00
2023-05-08T10:17:27.988Z,249.89
2023-05-08T10:18:27.962Z,246.14
2023-05-08T10:19:27.935Z,244.89
2023-05-08T10:20:27.985Z,247.29
2023-05-08T10:21:27.975Z,242.08
2023-05-08T10:22:27.814Z,244.32
2023-05-08T10:23:30.984Z,244.01
2023-05-08T10:24:27.758Z,244.13
2023-05-08T10:25:27.764Z,244.14
2023-05-08T10:26:28.002Z,242.74
2023-05-08T10:27:27.722Z,240.88
2023-05-08T10:28:27.666Z,240.44
2023-05-08T10:29:27.671Z,238.66
2023-05-08T10:30:27.609Z,238.96
2023-05-08T10:31:29.053Z,238.10
2023-05-08T10:32:27.984Z,238.91
2023-05-08T10:33:29.004Z,237.80
2023-05-08T10:34:27.581Z,237.89
2023-05-08T10:35:27.555Z,237.87
2023-05-08T10:36:30.331Z,236.10
2023-05-08T10:37:27.514Z,237.96
2023-05-08T10:38:27.987Z,237.36
2023-05-08T10:39:27.451Z,236.33
2023-05-08T10:40:27.460Z,233.63
2023-05-08T10:41:27.403Z,234.70
2023-05-08T10:42:27.380Z,234.10
2023-05-08T10:43:27.362Z,233.06
2023-05-08T10:44:28.338Z,233.23
2023-05-08T10:45:27.295Z,233.08
2023-05-08T10:46:27.538Z,232.17
2023-05-08T10:47:27.309Z,231.17
2023-05-08T10:48:27.226Z,231.47
2023-05-08T10:49:27.183Z,229.90
2023-05-08T10:50:27.162Z,230.05
2023-05-08T10:51:28.005Z,229.78
2023-05-08T10:52:27.513Z,229.61
2023-05-08T10:53:27.103Z,229.27
2023-05-08T10:54:27.998Z,229.29
2023-05-08T10:55:27.059Z,231.16
2023-05-08T10:56:27.074Z,230.88
2023-05-08T10:57:27.474Z,228.83
2023-05-08T10:58:27.016Z,229.75
2023-05-08T10:59:27.526Z,228.47
2023-05-08T11:00:27.449Z,228.72
2023-05-08T11:01:27.131Z,232.68
2023-05-08T11:02:26.973Z,236.48
2023-05-08T11:03:31.958Z,236.42
2023-05-08T11:04:27.049Z,234.76
2023-05-08T11:05:27.850Z,232.18
2023-05-08T11:06:26.973Z,232.99
2023-05-08T11:07:26.806Z,235.35
2023-05-08T11:08:26.830Z,236.72
2023-05-08T11:09:26.776Z,235.02
2023-05-08T11:10:26.982Z,235.43
2023-05-08T11:11:26.791Z,234.93
2023-05-08T11:12:26.704Z,234.55
2023-05-08T11:13:26.743Z,233.78
2023-05-08T11:14:26.682Z,232.35
2023-05-08T11:15:26.986Z,232.20
2023-05-08T11:16:26.984Z,231.34
2023-05-08T11:17:26.616Z,231.95
2023-05-08T11:18:32.484Z,230.72
2023-05-08T11:19:26.552Z,231.00
2023-05-08T11:20:26.501Z,231.64
2023-05-08T11:21:26.511Z,231.82
2023-05-08T11:22:26.452Z,232.09
2023-05-08T11:23:26.967Z,230.84
2023-05-08T11:24:26.448Z,231.47
2023-05-08T11:25:26.382Z,229.56
2023-05-08T11:26:26.352Z,230.02
2023-05-08T11:27:26.331Z,229.12
2023-05-08T11:28:26.503Z,228.06
2023-05-08T11:29:26.500Z,227.95
2023-05-08T11:30:26.350Z,227.87
2023-05-08T11:31:26.297Z,228.55
2023-05-08T11:32:33.647Z,227.08
2023-05-08T11:33:26.492Z,227.36
2023-05-08T11:34:26.151Z,227.84
2023-05-08T11:35:26.125Z,227.92
2023-05-08T11:36:26.688Z,227.45
2023-05-08T11:37:26.540Z,225.93
2023-05-08T11:38:26.092Z,224.74
2023-05-08T11:39:26.017Z,225.55
2023-05-08T11:40:26.102Z,224.14
2023-05-08T11:41:33.363Z,223.49
2023-05-08T11:42:26.016Z,223.77
2023-05-08T11:43:25.941Z,224.16
2023-05-08T11:44:25.896Z,224.00
2023-05-08T11:45:25.865Z,223.20
2023-05-08T11:46:26.071Z,220.21
2023-05-08T11:47:25.864Z,221.26
2023-05-08T11:48:25.810Z,220.43
2023-05-08T11:49:29.166Z,220.41
2023-05-08T11:50:25.781Z,220.63
2023-05-08T11:51:25.757Z,220.57
2023-05-08T11:52:26.050Z,219.27
2023-05-08T11:53:25.702Z,217.77
2023-05-08T11:54:29.197Z,217.70
2023-05-08T11:55:25.630Z,220.48
2023-05-08T11:56:25.616Z,218.19
2023-05-08T11:57:28.787Z,216.77
2023-05-08T11:58:26.552Z,220.44
2023-05-08T11:59:26.015Z,217.41
2023-05-08T12:00:25.520Z,216.96
2023-05-08T12:01:32.924Z,214.63
2023-05-08T12:02:25.504Z,220.46
2023-05-08T12:03:41.178Z,219.44
2023-05-08T12:04:25.547Z,220.59
2023-05-08T12:05:25.370Z,220.43
2023-05-08T12:06:26.343Z,216.53
2023-05-08T12:07:25.519Z,215.91
2023-05-08T12:08:25.290Z,213.16
2023-05-08T12:09:25.261Z,212.26
2023-05-08T12:10:25.249Z,211.14
2023-05-08T12:11:26.211Z,210.74
2023-05-08T12:12:25.214Z,210.24
2023-05-08T12:13:25.292Z,210.03
2023-05-08T12:14:25.185Z,208.45
2023-05-08T12:15:25.103Z,207.42
2023-05-08T12:16:25.116Z,206.99
2023-05-08T12:17:25.683Z,205.76
2023-05-08T12:18:25.387Z,204.65
2023-05-08T12:19:25.601Z,204.16
2023-05-08T12:20:25.590Z,204.15
2023-05-08T12:21:25.245Z,204.32
2023-05-08T12:22:25.438Z,203.52
2023-05-08T12:23:25.381Z,201.99
2023-05-08T12:24:25.400Z,203.32
2023-05-08T12:25:26.611Z,203.04
2023-05-08T12:26:25.204Z,202.48
2023-05-08T12:27:25.466Z,202.61
2023-05-08T12:28:25.269Z,202.78
2023-05-08T12:29:26.133Z,202.58
2023-05-08T12:30:25.059Z,203.63
2023-05-08T12:31:25.176Z,201.02
2023-05-08T12:32:27.116Z,200.79
2023-05-08T12:33:25.065Z,200.92
2023-05-08T12:34:25.042Z,200.88
2023-05-08T12:35:24.991Z,200.61
2023-05-08T12:36:24.935Z,200.85
2023-05-08T12:37:25.452Z,201.12
2023-05-08T12:38:24.820Z,199.67
2023-05-08T12:39:25.016Z,199.03
2023-05-08T12:40:25.064Z,199.65
2023-05-08T12:41:24.725Z,199.05
2023-05-08T12:42:24.936Z,197.91
2023-05-08T12:43:24.993Z,199.58
2023-05-08T12:44:25.004Z,198.96
2023-05-08T12:45:24.951Z,198.68
2023-05-08T12:46:24.339Z,196.62